sensor_id;sensor_type;location;lat;lon;timestamp;temperature;humidity
69335;SHT31;56477;52.742;15.242;2022-11-11T00:00:37;10.80;88.68
69335;SHT31;56477;52.742;15.242;2022-11-11T00:03:13;10.81;88.76
69335;SHT31;56477;52.742;15.242;2022-11-11T00:05:40;10.79;88.84
69335;SHT31;56477;52.742;15.242;2022-11-11T00:08:06;10.73;89.06
69335;SHT31;56477;52.742;15.242;2022-11-11T00:10:32;10.75;89.03
69335;SHT31;56477;52.742;15.242;2022-11-11T00:13:02;10.76;88.99
69335;SHT31;56477;52.742;15.242;2022-11-11T00:15:30;10.75;89.05
69335;SHT31;56477;52.742;15.242;2022-11-11T00:17:57;10.70;89.30
69335;SHT31;56477;52.742;15.242;2022-11-11T00:20:41;10.66;89.49
69335;SHT31;56477;52.742;15.242;2022-11-11T00:23:27;10.62;89.80
69335;SHT31;56477;52.742;15.242;2022-11-11T00:26:13;10.59;89.80
69335;SHT31;56477;52.742;15.242;2022-11-11T00:28:40;10.58;89.99
69335;SHT31;56477;52.742;15.242;2022-11-11T00:31:09;10.59;89.81
69335;SHT31;56477;52.742;15.242;2022-11-11T00:33:35;10.59;89.86
69335;SHT31;56477;52.742;15.242;2022-11-11T00:36:02;10.63;89.67
69335;SHT31;56477;52.742;15.242;2022-11-11T00:38:28;10.62;89.77
69335;SHT31;56477;52.742;15.242;2022-11-11T00:41:15;10.58;89.96
69335;SHT31;56477;52.742;15.242;2022-11-11T00:43:42;10.55;90.06
69335;SHT31;56477;52.742;15.242;2022-11-11T00:46:09;10.55;90.00
69335;SHT31;56477;52.742;15.242;2022-11-11T00:48:53;10.52;90.19
69335;SHT31;56477;52.742;15.242;2022-11-11T00:51:39;10.46;90.32
69335;SHT31;56477;52.742;15.242;2022-11-11T00:54:05;10.48;90.10
69335;SHT31;56477;52.742;15.242;2022-11-11T00:56:31;10.49;90.20
69335;SHT31;56477;52.742;15.242;2022-11-11T00:58:58;10.49;90.06
69335;SHT31;56477;52.742;15.242;2022-11-11T01:01:24;10.50;90.06
69335;SHT31;56477;52.742;15.242;2022-11-11T01:03:50;10.53;89.72
69335;SHT31;56477;52.742;15.242;2022-11-11T01:06:16;10.50;89.95
69335;SHT31;56477;52.742;15.242;2022-11-11T01:08:42;10.53;89.77
69335;SHT31;56477;52.742;15.242;2022-11-11T01:11:16;10.53;89.88
69335;SHT31;56477;52.742;15.242;2022-11-11T01:13:43;10.49;89.85
69335;SHT31;56477;52.742;15.242;2022-11-11T01:16:12;10.46;90.03
69335;SHT31;56477;52.742;15.242;2022-11-11T01:18:38;10.48;90.04
69335;SHT31;56477;52.742;15.242;2022-11-11T01:21:14;10.46;90.12
69335;SHT31;56477;52.742;15.242;2022-11-11T01:23:41;10.39;90.24
69335;SHT31;56477;52.742;15.242;2022-11-11T01:26:15;10.35;90.37
69335;SHT31;56477;52.742;15.242;2022-11-11T01:28:41;10.28;90.59
69335;SHT31;56477;52.742;15.242;2022-11-11T01:31:10;10.21;90.76
69335;SHT31;56477;52.742;15.242;2022-11-11T01:33:36;10.18;90.96
69335;SHT31;56477;52.742;15.242;2022-11-11T01:36:09;10.12;91.15
69335;SHT31;56477;52.742;15.242;2022-11-11T01:38:36;10.07;91.28
69335;SHT31;56477;52.742;15.242;2022-11-11T01:41:05;10.05;91.36
69335;SHT31;56477;52.742;15.242;2022-11-11T01:43:51;10.09;91.09
69335;SHT31;56477;52.742;15.242;2022-11-11T01:46:43;10.07;91.13
69335;SHT31;56477;52.742;15.242;2022-11-11T01:49:15;10.04;91.14
69335;SHT31;56477;52.742;15.242;2022-11-11T01:54:19;10.01;90.88
69335;SHT31;56477;52.742;15.242;2022-11-11T01:56:49;10.02;90.75
69335;SHT31;56477;52.742;15.242;2022-11-11T01:59:16;9.95;90.90
69335;SHT31;56477;52.742;15.242;2022-11-11T02:01:43;9.98;90.68
69335;SHT31;56477;52.742;15.242;2022-11-11T02:04:10;9.94;90.76
69335;SHT31;56477;52.742;15.242;2022-11-11T02:06:59;9.95;90.56
69335;SHT31;56477;52.742;15.242;2022-11-11T02:09:26;9.91;90.49
69335;SHT31;56477;52.742;15.242;2022-11-11T02:11:53;9.91;90.49
69335;SHT31;56477;52.742;15.242;2022-11-11T02:14:48;9.90;90.26
69335;SHT31;56477;52.742;15.242;2022-11-11T02:17:15;9.88;90.26
69335;SHT31;56477;52.742;15.242;2022-11-11T02:19:55;9.79;90.56
69335;SHT31;56477;52.742;15.242;2022-11-11T02:23:23;9.76;90.33
69335;SHT31;56477;52.742;15.242;2022-11-11T02:25:27;9.73;90.53
69335;SHT31;56477;52.742;15.242;2022-11-11T02:27:57;9.71;90.41
69335;SHT31;56477;52.742;15.242;2022-11-11T02:30:25;9.69;90.38
69335;SHT31;56477;52.742;15.242;2022-11-11T02:32:52;9.70;90.25
69335;SHT31;56477;52.742;15.242;2022-11-11T02:35:21;9.70;90.18
69335;SHT31;56477;52.742;15.242;2022-11-11T02:37:50;9.69;90.14
69335;SHT31;56477;52.742;15.242;2022-11-11T02:40:24;9.69;90.01
69335;SHT31;56477;52.742;15.242;2022-11-11T02:42:51;9.69;89.94
69335;SHT31;56477;52.742;15.242;2022-11-11T02:45:17;9.70;89.63
69335;SHT31;56477;52.742;15.242;2022-11-11T02:47:43;9.66;89.84
69335;SHT31;56477;52.742;15.242;2022-11-11T02:50:09;9.69;89.70
69335;SHT31;56477;52.742;15.242;2022-11-11T02:52:35;9.66;89.76
69335;SHT31;56477;52.742;15.242;2022-11-11T02:55:01;9.64;89.68
69335;SHT31;56477;52.742;15.242;2022-11-11T02:57:27;9.61;89.82
69335;SHT31;56477;52.742;15.242;2022-11-11T02:59:53;9.60;89.88
69335;SHT31;56477;52.742;15.242;2022-11-11T03:02:20;9.54;89.97
69335;SHT31;56477;52.742;15.242;2022-11-11T03:04:46;9.54;89.88
69335;SHT31;56477;52.742;15.242;2022-11-11T03:07:12;9.54;89.96
69335;SHT31;56477;52.742;15.242;2022-11-11T03:09:38;9.44;90.30
69335;SHT31;56477;52.742;15.242;2022-11-11T03:12:04;9.39;90.40
69335;SHT31;56477;52.742;15.242;2022-11-11T03:14:30;9.36;90.44
69335;SHT31;56477;52.742;15.242;2022-11-11T03:16:56;9.33;90.52
69335;SHT31;56477;52.742;15.242;2022-11-11T03:19:41;9.26;90.78
69335;SHT31;56477;52.742;15.242;2022-11-11T03:22:07;9.23;90.82
69335;SHT31;56477;52.742;15.242;2022-11-11T03:24:33;9.23;90.77
69335;SHT31;56477;52.742;15.242;2022-11-11T03:27:17;9.18;90.84
69335;SHT31;56477;52.742;15.242;2022-11-11T03:29:43;9.14;90.87
69335;SHT31;56477;52.742;15.242;2022-11-11T03:32:10;9.15;90.88
69335;SHT31;56477;52.742;15.242;2022-11-11T03:34:37;9.08;91.03
69335;SHT31;56477;52.742;15.242;2022-11-11T03:37:05;8.97;91.43
69335;SHT31;56477;52.742;15.242;2022-11-11T03:39:50;8.88;91.70
69335;SHT31;56477;52.742;15.242;2022-11-11T03:42:16;8.82;91.84
69335;SHT31;56477;52.742;15.242;2022-11-11T03:44:42;8.81;91.86
69335;SHT31;56477;52.742;15.242;2022-11-11T03:47:08;8.75;92.09
69335;SHT31;56477;52.742;15.242;2022-11-11T03:49:35;8.72;92.16
69335;SHT31;56477;52.742;15.242;2022-11-11T03:52:00;8.71;91.98
69335;SHT31;56477;52.742;15.242;2022-11-11T03:54:26;8.72;92.00
69335;SHT31;56477;52.742;15.242;2022-11-11T03:56:53;8.72;91.84
69335;SHT31;56477;52.742;15.242;2022-11-11T03:59:39;8.71;91.75
69335;SHT31;56477;52.742;15.242;2022-11-11T04:02:05;8.71;91.93
69335;SHT31;56477;52.742;15.242;2022-11-11T04:04:49;8.61;92.22
69335;SHT31;56477;52.742;15.242;2022-11-11T04:07:34;8.63;92.17
69335;SHT31;56477;52.742;15.242;2022-11-11T04:10:18;8.57;92.25
69335;SHT31;56477;52.742;15.242;2022-11-11T04:12:47;8.57;92.19
69335;SHT31;56477;52.742;15.242;2022-11-11T04:15:31;8.59;92.19
69335;SHT31;56477;52.742;15.242;2022-11-11T04:18:16;8.54;92.28
69335;SHT31;56477;52.742;15.242;2022-11-11T04:20:42;8.57;92.21
69335;SHT31;56477;52.742;15.242;2022-11-11T04:23:27;8.54;92.31
69335;SHT31;56477;52.742;15.242;2022-11-11T04:25:53;8.54;92.23
69335;SHT31;56477;52.742;15.242;2022-11-11T04:28:21;8.59;92.03
69335;SHT31;56477;52.742;15.242;2022-11-11T04:31:06;8.63;91.79
69335;SHT31;56477;52.742;15.242;2022-11-11T04:33:32;8.65;91.69
69335;SHT31;56477;52.742;15.242;2022-11-11T04:35:58;8.70;91.62
69335;SHT31;56477;52.742;15.242;2022-11-11T04:38:24;8.67;91.66
69335;SHT31;56477;52.742;15.242;2022-11-11T04:41:09;8.64;91.66
69335;SHT31;56477;52.742;15.242;2022-11-11T04:43:36;8.67;91.66
69335;SHT31;56477;52.742;15.242;2022-11-11T04:46:21;8.63;91.78
69335;SHT31;56477;52.742;15.242;2022-11-11T04:48:48;8.60;91.78
69335;SHT31;56477;52.742;15.242;2022-11-11T04:51:14;8.59;91.78
69335;SHT31;56477;52.742;15.242;2022-11-11T04:53:39;8.59;91.76
69335;SHT31;56477;52.742;15.242;2022-11-11T04:56:07;8.61;91.56
69335;SHT31;56477;52.742;15.242;2022-11-11T04:58:52;8.64;91.36
69335;SHT31;56477;52.742;15.242;2022-11-11T05:01:38;8.67;91.31
69335;SHT31;56477;52.742;15.242;2022-11-11T05:04:22;8.71;91.03
69335;SHT31;56477;52.742;15.242;2022-11-11T05:06:48;8.85;90.39
69335;SHT31;56477;52.742;15.242;2022-11-11T05:09:32;8.80;90.63
69335;SHT31;56477;52.742;15.242;2022-11-11T05:11:58;8.75;90.61
69335;SHT31;56477;52.742;15.242;2022-11-11T05:14:24;8.87;90.24
69335;SHT31;56477;52.742;15.242;2022-11-11T05:17:09;8.85;90.25
69335;SHT31;56477;52.742;15.242;2022-11-11T05:19:53;8.84;90.32
69335;SHT31;56477;52.742;15.242;2022-11-11T05:22:39;8.85;90.01
69335;SHT31;56477;52.742;15.242;2022-11-11T05:25:06;8.78;90.44
69335;SHT31;56477;52.742;15.242;2022-11-11T05:27:55;8.87;89.99
69335;SHT31;56477;52.742;15.242;2022-11-11T05:30:22;8.82;90.13
69335;SHT31;56477;52.742;15.242;2022-11-11T05:32:49;8.82;90.18
69335;SHT31;56477;52.742;15.242;2022-11-11T05:35:15;8.80;90.13
69335;SHT31;56477;52.742;15.242;2022-11-11T05:37:42;8.80;90.08
69335;SHT31;56477;52.742;15.242;2022-11-11T05:40:09;8.87;89.61
69335;SHT31;56477;52.742;15.242;2022-11-11T05:42:39;8.84;89.88
69335;SHT31;56477;52.742;15.242;2022-11-11T05:45:06;8.84;90.02
69335;SHT31;56477;52.742;15.242;2022-11-11T05:47:32;8.78;90.07
69335;SHT31;56477;52.742;15.242;2022-11-11T05:49:59;8.77;90.19
69335;SHT31;56477;52.742;15.242;2022-11-11T05:52:24;8.75;90.28
69335;SHT31;56477;52.742;15.242;2022-11-11T05:54:50;8.74;90.33
69335;SHT31;56477;52.742;15.242;2022-11-11T05:57:16;8.75;90.13
69335;SHT31;56477;52.742;15.242;2022-11-11T05:59:42;8.71;90.32
69335;SHT31;56477;52.742;15.242;2022-11-11T06:02:09;8.72;90.28
69335;SHT31;56477;52.742;15.242;2022-11-11T06:04:35;8.71;90.33
69335;SHT31;56477;52.742;15.242;2022-11-11T06:07:01;8.64;90.49
69335;SHT31;56477;52.742;15.242;2022-11-11T06:09:28;8.59;90.65
69335;SHT31;56477;52.742;15.242;2022-11-11T06:11:53;8.53;90.82
69335;SHT31;56477;52.742;15.242;2022-11-11T06:14:19;8.46;90.93
69335;SHT31;56477;52.742;15.242;2022-11-11T06:16:46;8.46;91.09
69335;SHT31;56477;52.742;15.242;2022-11-11T06:19:11;8.37;91.31
69335;SHT31;56477;52.742;15.242;2022-11-11T06:21:37;8.33;91.34
69335;SHT31;56477;52.742;15.242;2022-11-11T06:24:22;8.28;91.63
69335;SHT31;56477;52.742;15.242;2022-11-11T06:26:48;8.19;91.90
69335;SHT31;56477;52.742;15.242;2022-11-11T06:29:14;8.17;92.01
69335;SHT31;56477;52.742;15.242;2022-11-11T06:31:43;8.23;91.90
69335;SHT31;56477;52.742;15.242;2022-11-11T06:34:10;8.23;91.96
69335;SHT31;56477;52.742;15.242;2022-11-11T06:36:36;8.22;91.98
69335;SHT31;56477;52.742;15.242;2022-11-11T06:39:02;8.19;92.12
69335;SHT31;56477;52.742;15.242;2022-11-11T06:41:28;8.16;92.05
69335;SHT31;56477;52.742;15.242;2022-11-11T06:43:54;8.16;92.28
69335;SHT31;56477;52.742;15.242;2022-11-11T06:46:24;8.16;92.17
69335;SHT31;56477;52.742;15.242;2022-11-11T06:48:50;8.12;92.28
69335;SHT31;56477;52.742;15.242;2022-11-11T06:51:17;8.13;92.22
69335;SHT31;56477;52.742;15.242;2022-11-11T06:53:43;8.06;92.44
69335;SHT31;56477;52.742;15.242;2022-11-11T06:56:09;8.02;92.52
69335;SHT31;56477;52.742;15.242;2022-11-11T06:58:38;8.03;92.52
69335;SHT31;56477;52.742;15.242;2022-11-11T07:01:05;8.02;92.60
69335;SHT31;56477;52.742;15.242;2022-11-11T07:03:32;8.01;92.68
69335;SHT31;56477;52.742;15.242;2022-11-11T07:06:03;7.95;92.85
69335;SHT31;56477;52.742;15.242;2022-11-11T07:08:29;7.99;92.83
69335;SHT31;56477;52.742;15.242;2022-11-11T07:10:56;7.98;92.79
69335;SHT31;56477;52.742;15.242;2022-11-11T07:13:22;7.99;92.84
69335;SHT31;56477;52.742;15.242;2022-11-11T07:15:48;8.05;92.67
69335;SHT31;56477;52.742;15.242;2022-11-11T07:18:14;8.16;92.32
69335;SHT31;56477;52.742;15.242;2022-11-11T07:20:41;8.10;92.44
69335;SHT31;56477;52.742;15.242;2022-11-11T07:23:07;8.09;92.39
69335;SHT31;56477;52.742;15.242;2022-11-11T07:25:33;8.07;92.46
69335;SHT31;56477;52.742;15.242;2022-11-11T07:27:59;8.06;92.52
69335;SHT31;56477;52.742;15.242;2022-11-11T07:30:26;8.07;92.52
69335;SHT31;56477;52.742;15.242;2022-11-11T07:32:53;8.10;92.48
69335;SHT31;56477;52.742;15.242;2022-11-11T07:35:20;8.21;92.28
69335;SHT31;56477;52.742;15.242;2022-11-11T07:37:47;8.14;92.21
69335;SHT31;56477;52.742;15.242;2022-11-11T07:40:15;8.13;92.36
69335;SHT31;56477;52.742;15.242;2022-11-11T07:42:42;8.09;92.45
69335;SHT31;56477;52.742;15.242;2022-11-11T07:45:09;8.06;92.67
69335;SHT31;56477;52.742;15.242;2022-11-11T07:47:36;8.07;92.60
69335;SHT31;56477;52.742;15.242;2022-11-11T07:50:06;8.09;92.59
69335;SHT31;56477;52.742;15.242;2022-11-11T07:52:33;8.16;92.44
69335;SHT31;56477;52.742;15.242;2022-11-11T07:55:01;8.22;92.12
69335;SHT31;56477;52.742;15.242;2022-11-11T07:57:28;8.25;92.06
69335;SHT31;56477;52.742;15.242;2022-11-11T07:59:54;8.25;92.05
69335;SHT31;56477;52.742;15.242;2022-11-11T08:02:19;8.32;91.78
69335;SHT31;56477;52.742;15.242;2022-11-11T08:04:46;8.32;91.75
69335;SHT31;56477;52.742;15.242;2022-11-11T08:07:14;8.36;91.67
69335;SHT31;56477;52.742;15.242;2022-11-11T08:09:40;8.36;91.61
69335;SHT31;56477;52.742;15.242;2022-11-11T08:12:07;8.43;91.50
69335;SHT31;56477;52.742;15.242;2022-11-11T08:14:51;8.47;91.41
69335;SHT31;56477;52.742;15.242;2022-11-11T08:17:17;8.56;91.20
69335;SHT31;56477;52.742;15.242;2022-11-11T08:19:44;8.60;90.89
69335;SHT31;56477;52.742;15.242;2022-11-11T08:22:09;8.78;90.36
69335;SHT31;56477;52.742;15.242;2022-11-11T08:24:36;9.00;89.79
69335;SHT31;56477;52.742;15.242;2022-11-11T08:27:02;9.08;89.45
69335;SHT31;56477;52.742;15.242;2022-11-11T08:29:28;9.32;88.38
69335;SHT31;56477;52.742;15.242;2022-11-11T08:31:54;9.36;88.20
69335;SHT31;56477;52.742;15.242;2022-11-11T08:34:20;9.42;87.94
69335;SHT31;56477;52.742;15.242;2022-11-11T08:36:46;9.54;87.72
69335;SHT31;56477;52.742;15.242;2022-11-11T08:39:12;9.74;87.17
69335;SHT31;56477;52.742;15.242;2022-11-11T08:41:41;9.88;86.64
69335;SHT31;56477;52.742;15.242;2022-11-11T08:44:08;9.98;86.63
69335;SHT31;56477;52.742;15.242;2022-11-11T08:46:34;9.90;86.25
69335;SHT31;56477;52.742;15.242;2022-11-11T08:49:00;10.02;85.77
69335;SHT31;56477;52.742;15.242;2022-11-11T08:51:26;10.24;85.39
69335;SHT31;56477;52.742;15.242;2022-11-11T08:53:52;10.44;84.70
69335;SHT31;56477;52.742;15.242;2022-11-11T08:56:18;10.46;84.57
69335;SHT31;56477;52.742;15.242;2022-11-11T08:58:44;10.46;84.34
69335;SHT31;56477;52.742;15.242;2022-11-11T09:01:11;10.45;84.57
69335;SHT31;56477;52.742;15.242;2022-11-11T09:03:39;10.42;84.24
69335;SHT31;56477;52.742;15.242;2022-11-11T09:06:09;10.35;83.92
69335;SHT31;56477;52.742;15.242;2022-11-11T09:08:36;10.58;84.45
69335;SHT31;56477;52.742;15.242;2022-11-11T09:11:02;10.48;84.34
69335;SHT31;56477;52.742;15.242;2022-11-11T09:13:28;10.53;84.70
69335;SHT31;56477;52.742;15.242;2022-11-11T09:15:55;10.53;84.25
69335;SHT31;56477;52.742;15.242;2022-11-11T09:18:21;10.56;83.74
69335;SHT31;56477;52.742;15.242;2022-11-11T09:20:47;10.50;83.77
69335;SHT31;56477;52.742;15.242;2022-11-11T09:23:13;10.42;83.76
69335;SHT31;56477;52.742;15.242;2022-11-11T09:25:39;10.50;83.80
69335;SHT31;56477;52.742;15.242;2022-11-11T09:28:05;10.55;83.66
69335;SHT31;56477;52.742;15.242;2022-11-11T09:30:32;10.55;83.68
69335;SHT31;56477;52.742;15.242;2022-11-11T09:33:02;10.69;83.30
69335;SHT31;56477;52.742;15.242;2022-11-11T09:35:29;10.59;83.18
69335;SHT31;56477;52.742;15.242;2022-11-11T09:37:58;10.60;83.46
69335;SHT31;56477;52.742;15.242;2022-11-11T09:40:27;10.62;83.59
69335;SHT31;56477;52.742;15.242;2022-11-11T09:43:08;10.58;83.69
69335;SHT31;56477;52.742;15.242;2022-11-11T09:46:09;10.59;83.86
69335;SHT31;56477;52.742;15.242;2022-11-11T09:48:45;10.56;83.86
69335;SHT31;56477;52.742;15.242;2022-11-11T09:51:28;10.69;83.89
69335;SHT31;56477;52.742;15.242;2022-11-11T09:54:02;10.67;83.39
69335;SHT31;56477;52.742;15.242;2022-11-11T09:56:31;10.72;83.58
69335;SHT31;56477;52.742;15.242;2022-11-11T09:59:08;10.67;83.43
69335;SHT31;56477;52.742;15.242;2022-11-11T10:01:42;10.70;83.47
69335;SHT31;56477;52.742;15.242;2022-11-11T10:04:26;10.75;83.27
69335;SHT31;56477;52.742;15.242;2022-11-11T10:07:02;10.87;83.21
69335;SHT31;56477;52.742;15.242;2022-11-11T10:09:44;10.92;82.97
69335;SHT31;56477;52.742;15.242;2022-11-11T10:12:15;10.96;82.83
69335;SHT31;56477;52.742;15.242;2022-11-11T10:14:43;11.07;83.13
69335;SHT31;56477;52.742;15.242;2022-11-11T10:17:39;11.14;82.31
69335;SHT31;56477;52.742;15.242;2022-11-11T10:20:18;11.20;81.99
69335;SHT31;56477;52.742;15.242;2022-11-11T10:22:51;11.51;81.99
69335;SHT31;56477;52.742;15.242;2022-11-11T10:25:24;11.64;80.51
69335;SHT31;56477;52.742;15.242;2022-11-11T10:27:53;11.61;80.23
69335;SHT31;56477;52.742;15.242;2022-11-11T10:30:38;11.68;80.25
69335;SHT31;56477;52.742;15.242;2022-11-11T10:33:18;11.66;79.62
69335;SHT31;56477;52.742;15.242;2022-11-11T10:35:47;11.58;79.90
69335;SHT31;56477;52.742;15.242;2022-11-11T10:40:52;11.79;79.55
69335;SHT31;56477;52.742;15.242;2022-11-11T10:43:25;11.68;80.13
69335;SHT31;56477;52.742;15.242;2022-11-11T10:46:02;11.75;79.89
69335;SHT31;56477;52.742;15.242;2022-11-11T10:49:08;11.64;80.25
69335;SHT31;56477;52.742;15.242;2022-11-11T10:51:50;11.68;80.23
69335;SHT31;56477;52.742;15.242;2022-11-11T10:54:23;11.64;80.37
69335;SHT31;56477;52.742;15.242;2022-11-11T10:59:28;11.68;80.08
69335;SHT31;56477;52.742;15.242;2022-11-11T11:04:44;11.69;79.97
69335;SHT31;56477;52.742;15.242;2022-11-11T11:07:16;11.71;80.35
69335;SHT31;56477;52.742;15.242;2022-11-11T11:09:51;11.66;80.54
69335;SHT31;56477;52.742;15.242;2022-11-11T11:12:31;11.72;80.20
69335;SHT31;56477;52.742;15.242;2022-11-11T11:15:03;11.71;80.09
69335;SHT31;56477;52.742;15.242;2022-11-11T11:17:38;11.72;80.20
69335;SHT31;56477;52.742;15.242;2022-11-11T11:20:15;11.65;80.51
69335;SHT31;56477;52.742;15.242;2022-11-11T11:22:54;11.64;80.27
69335;SHT31;56477;52.742;15.242;2022-11-11T11:25:24;11.65;80.53
69335;SHT31;56477;52.742;15.242;2022-11-11T11:27:52;11.65;80.59
69335;SHT31;56477;52.742;15.242;2022-11-11T11:30:24;11.58;80.61
69335;SHT31;56477;52.742;15.242;2022-11-11T11:33:00;11.62;80.74
69335;SHT31;56477;52.742;15.242;2022-11-11T11:38:03;11.69;80.80
69335;SHT31;56477;52.742;15.242;2022-11-11T11:40:44;11.71;80.69
69335;SHT31;56477;52.742;15.242;2022-11-11T11:45:58;11.72;80.68
69335;SHT31;56477;52.742;15.242;2022-11-11T11:51:20;11.78;80.84
69335;SHT31;56477;52.742;15.242;2022-11-11T11:56:41;11.87;80.63
69335;SHT31;56477;52.742;15.242;2022-11-11T11:59:41;11.86;80.70
69335;SHT31;56477;52.742;15.242;2022-11-11T12:13:34;12.06;80.43
69335;SHT31;56477;52.742;15.242;2022-11-11T12:24:30;12.03;80.48
69335;SHT31;56477;52.742;15.242;2022-11-11T12:27:15;12.03;80.83
69335;SHT31;56477;52.742;15.242;2022-11-11T12:37:44;12.17;80.71
69335;SHT31;56477;52.742;15.242;2022-11-11T12:44:06;12.14;80.73
69335;SHT31;56477;52.742;15.242;2022-11-11T12:46:41;12.13;80.83
69335;SHT31;56477;52.742;15.242;2022-11-11T12:54:29;12.13;81.09
69335;SHT31;56477;52.742;15.242;2022-11-11T13:00:11;12.12;81.26
69335;SHT31;56477;52.742;15.242;2022-11-11T13:05:28;12.16;81.04
69335;SHT31;56477;52.742;15.242;2022-11-11T13:08:12;12.14;81.31
69335;SHT31;56477;52.742;15.242;2022-11-11T13:10:56;12.13;81.05
69335;SHT31;56477;52.742;15.242;2022-11-11T13:13:52;12.12;81.29
69335;SHT31;56477;52.742;15.242;2022-11-11T13:16:22;12.16;81.46
69335;SHT31;56477;52.742;15.242;2022-11-11T13:21:58;12.02;82.61
69335;SHT31;56477;52.742;15.242;2022-11-11T13:24:28;11.99;82.93
69335;SHT31;56477;52.742;15.242;2022-11-11T13:27:13;11.89;83.38
69335;SHT31;56477;52.742;15.242;2022-11-11T13:32:18;11.78;83.51
69335;SHT31;56477;52.742;15.242;2022-11-11T13:34:47;11.83;83.67
69335;SHT31;56477;52.742;15.242;2022-11-11T13:37:30;11.74;83.77
69335;SHT31;56477;52.742;15.242;2022-11-11T13:40:08;11.76;83.88
69335;SHT31;56477;52.742;15.242;2022-11-11T13:42:41;11.72;84.19
69335;SHT31;56477;52.742;15.242;2022-11-11T13:45:32;11.69;84.25
69335;SHT31;56477;52.742;15.242;2022-11-11T13:47:59;11.68;84.24
69335;SHT31;56477;52.742;15.242;2022-11-11T13:50:31;11.62;84.53
69335;SHT31;56477;52.742;15.242;2022-11-11T13:53:06;11.61;84.52
69335;SHT31;56477;52.742;15.242;2022-11-11T13:55:39;11.59;84.65
69335;SHT31;56477;52.742;15.242;2022-11-11T13:58:16;11.54;84.65
69335;SHT31;56477;52.742;15.242;2022-11-11T14:00:45;11.52;84.77
69335;SHT31;56477;52.742;15.242;2022-11-11T14:05:46;11.48;84.50
69335;SHT31;56477;52.742;15.242;2022-11-11T14:11:31;11.51;84.39
69335;SHT31;56477;52.742;15.242;2022-11-11T14:17:04;11.45;84.76
69335;SHT31;56477;52.742;15.242;2022-11-11T14:19:31;11.44;84.82
69335;SHT31;56477;52.742;15.242;2022-11-11T14:21:58;11.41;84.69
69335;SHT31;56477;52.742;15.242;2022-11-11T14:24:39;11.41;84.06
69335;SHT31;56477;52.742;15.242;2022-11-11T14:29:48;11.37;84.76
69335;SHT31;56477;52.742;15.242;2022-11-11T14:40:24;11.25;85.22
69335;SHT31;56477;52.742;15.242;2022-11-11T14:42:51;11.21;85.11
69335;SHT31;56477;52.742;15.242;2022-11-11T14:47:58;11.23;84.85
69335;SHT31;56477;52.742;15.242;2022-11-11T14:53:07;11.16;84.50
69335;SHT31;56477;52.742;15.242;2022-11-11T14:55:35;11.11;84.50
69335;SHT31;56477;52.742;15.242;2022-11-11T14:58:16;11.10;84.49
69335;SHT31;56477;52.742;15.242;2022-11-11T15:03:32;11.08;84.23
69335;SHT31;56477;52.742;15.242;2022-11-11T15:08:59;10.96;84.48
69335;SHT31;56477;52.742;15.242;2022-11-11T15:14:23;11.11;83.28
69335;SHT31;56477;52.742;15.242;2022-11-11T15:28:02;10.97;83.15
69335;SHT31;56477;52.742;15.242;2022-11-11T15:39:11;10.86;83.30
69335;SHT31;56477;52.742;15.242;2022-11-11T15:41:40;10.81;83.41
69335;SHT31;56477;52.742;15.242;2022-11-11T15:44:21;10.80;83.44
69335;SHT31;56477;52.742;15.242;2022-11-11T15:46:49;10.77;83.46
69335;SHT31;56477;52.742;15.242;2022-11-11T15:49:42;10.80;83.27
69335;SHT31;56477;52.742;15.242;2022-11-11T15:52:24;10.76;83.47
69335;SHT31;56477;52.742;15.242;2022-11-11T15:54:51;10.73;83.53
69335;SHT31;56477;52.742;15.242;2022-11-11T15:57:24;10.69;83.62
69335;SHT31;56477;52.742;15.242;2022-11-11T15:59:53;10.66;83.76
69335;SHT31;56477;52.742;15.242;2022-11-11T16:02:22;10.66;83.80
69335;SHT31;56477;52.742;15.242;2022-11-11T16:04:53;10.62;83.91
69335;SHT31;56477;52.742;15.242;2022-11-11T16:07:23;10.60;84.19
69335;SHT31;56477;52.742;15.242;2022-11-11T16:09:50;10.56;84.18
69335;SHT31;56477;52.742;15.242;2022-11-11T16:12:30;10.55;84.32
69335;SHT31;56477;52.742;15.242;2022-11-11T16:14:59;10.52;84.50
69335;SHT31;56477;52.742;15.242;2022-11-11T16:17:32;10.49;84.53
69335;SHT31;56477;52.742;15.242;2022-11-11T16:20:01;10.45;84.76
69335;SHT31;56477;52.742;15.242;2022-11-11T16:22:30;10.45;84.47
69335;SHT31;56477;52.742;15.242;2022-11-11T16:24:57;10.46;84.56
69335;SHT31;56477;52.742;15.242;2022-11-11T16:27:28;10.44;84.55
69335;SHT31;56477;52.742;15.242;2022-11-11T16:29:55;10.35;84.97
69335;SHT31;56477;52.742;15.242;2022-11-11T16:32:40;10.41;84.70
69335;SHT31;56477;52.742;15.242;2022-11-11T16:35:25;10.39;84.54
69335;SHT31;56477;52.742;15.242;2022-11-11T16:37:53;10.32;84.87
69335;SHT31;56477;52.742;15.242;2022-11-11T16:45:57;10.24;84.77
69335;SHT31;56477;52.742;15.242;2022-11-11T16:54:17;10.08;84.95
69335;SHT31;56477;52.742;15.242;2022-11-11T16:56:47;10.05;84.97
69335;SHT31;56477;52.742;15.242;2022-11-11T17:01:50;10.12;84.52
69335;SHT31;56477;52.742;15.242;2022-11-11T17:04:17;10.14;84.50
69335;SHT31;56477;52.742;15.242;2022-11-11T17:06:52;10.11;84.66
69335;SHT31;56477;52.742;15.242;2022-11-11T17:09:33;10.05;84.77
69335;SHT31;56477;52.742;15.242;2022-11-11T17:12:01;10.07;84.80
69335;SHT31;56477;52.742;15.242;2022-11-11T17:14:29;10.04;84.94
69335;SHT31;56477;52.742;15.242;2022-11-11T17:16:56;10.04;85.03
69335;SHT31;56477;52.742;15.242;2022-11-11T17:19:23;9.95;85.17
69335;SHT31;56477;52.742;15.242;2022-11-11T17:21:49;9.94;85.39
69335;SHT31;56477;52.742;15.242;2022-11-11T17:24:15;9.93;85.49
69335;SHT31;56477;52.742;15.242;2022-11-11T17:26:41;9.91;85.49
69335;SHT31;56477;52.742;15.242;2022-11-11T17:29:08;9.97;85.42
69335;SHT31;56477;52.742;15.242;2022-11-11T17:31:36;9.94;85.45
69335;SHT31;56477;52.742;15.242;2022-11-11T17:34:07;9.91;85.60
69335;SHT31;56477;52.742;15.242;2022-11-11T17:36:34;9.90;85.69
69335;SHT31;56477;52.742;15.242;2022-11-11T17:39:00;9.84;85.87
69335;SHT31;56477;52.742;15.242;2022-11-11T17:41:27;9.84;86.01
69335;SHT31;56477;52.742;15.242;2022-11-11T17:43:52;9.76;86.15
69335;SHT31;56477;52.742;15.242;2022-11-11T17:46:19;9.83;86.07
69335;SHT31;56477;52.742;15.242;2022-11-11T17:48:45;9.84;86.09
69335;SHT31;56477;52.742;15.242;2022-11-11T17:51:11;9.77;86.22
69335;SHT31;56477;52.742;15.242;2022-11-11T17:53:37;9.74;86.38
69335;SHT31;56477;52.742;15.242;2022-11-11T17:56:04;9.79;86.09
69335;SHT31;56477;52.742;15.242;2022-11-11T17:58:34;9.83;85.93
69335;SHT31;56477;52.742;15.242;2022-11-11T18:01:08;9.83;86.02
69335;SHT31;56477;52.742;15.242;2022-11-11T18:03:35;9.77;86.20